Waunakee, Wisconsin
Current Conditions -  °F | °C
As of 1:50 PM on Monday 22 Dec 2014 (Local Time) from KC29 Reporting Station
Overcast Overcast  
Wind Chill: 29°   Ceiling: 700
Heat Index: 36°   Visibility: 2mi
Dew Point: 35°   Wind: 9mph
Humidity: 97%   Direction: 100°E
Pressure: 29.7"   Gusts: NA
Location:  43.19°N, 89.46°W
Report Text: KC29 221950Z AUTO 10008KT 2SM OVC007 02/02 A2970 RMK AO1 T00200015
Loading
Personal Weather Stations






























Interactive Weather Map New forecast layout! Learn more

10-Day Weather Forecast

Advertisements
Track Severe Weather on mobile